sensor_id;sensor_type;location;lat;lon;timestamp;temperature;humidity
75927;DHT22;64605;48.296;16.416;2023-05-07T00:01:02;15.40;78.50
75927;DHT22;64605;48.296;16.416;2023-05-07T00:03:27;15.50;77.80
75927;DHT22;64605;48.296;16.416;2023-05-07T00:05:54;15.50;77.80
75927;DHT22;64605;48.296;16.416;2023-05-07T00:08:19;15.50;77.70
75927;DHT22;64605;48.296;16.416;2023-05-07T00:10:46;15.50;77.10
75927;DHT22;64605;48.296;16.416;2023-05-07T00:13:12;15.40;77.90
75927;DHT22;64605;48.296;16.416;2023-05-07T00:15:37;15.40;77.70
75927;DHT22;64605;48.296;16.416;2023-05-07T00:18:03;15.40;78.10
75927;DHT22;64605;48.296;16.416;2023-05-07T00:20:29;15.30;77.70
75927;DHT22;64605;48.296;16.416;2023-05-07T00:22:55;15.30;77.90
75927;DHT22;64605;48.296;16.416;2023-05-07T00:25:20;15.30;77.10
75927;DHT22;64605;48.296;16.416;2023-05-07T00:27:46;15.30;77.00
75927;DHT22;64605;48.296;16.416;2023-05-07T00:30:12;15.30;76.90
75927;DHT22;64605;48.296;16.416;2023-05-07T00:32:38;15.20;77.40
75927;DHT22;64605;48.296;16.416;2023-05-07T00:35:05;15.20;77.40
75927;DHT22;64605;48.296;16.416;2023-05-07T00:37:30;15.20;78.20
75927;DHT22;64605;48.296;16.416;2023-05-07T00:39:56;15.20;78.00
75927;DHT22;64605;48.296;16.416;2023-05-07T00:42:22;15.20;77.90
75927;DHT22;64605;48.296;16.416;2023-05-07T00:44:48;15.20;78.60
75927;DHT22;64605;48.296;16.416;2023-05-07T00:47:14;15.10;77.80
75927;DHT22;64605;48.296;16.416;2023-05-07T00:49:43;15.10;78.50
75927;DHT22;64605;48.296;16.416;2023-05-07T00:52:14;15.10;78.60
75927;DHT22;64605;48.296;16.416;2023-05-07T00:54:41;15.10;77.80
75927;DHT22;64605;48.296;16.416;2023-05-07T00:57:09;15.00;78.50
75927;DHT22;64605;48.296;16.416;2023-05-07T00:59:35;15.00;78.40
75927;DHT22;64605;48.296;16.416;2023-05-07T01:02:00;15.00;78.60
75927;DHT22;64605;48.296;16.416;2023-05-07T01:04:26;14.90;79.40
75927;DHT22;64605;48.296;16.416;2023-05-07T01:06:54;14.90;78.50
75927;DHT22;64605;48.296;16.416;2023-05-07T01:09:22;14.90;77.90
75927;DHT22;64605;48.296;16.416;2023-05-07T01:11:49;14.90;77.90
75927;DHT22;64605;48.296;16.416;2023-05-07T01:14:16;14.90;77.50
75927;DHT22;64605;48.296;16.416;2023-05-07T01:16:42;14.80;77.30
75927;DHT22;64605;48.296;16.416;2023-05-07T01:19:08;14.80;77.00
75927;DHT22;64605;48.296;16.416;2023-05-07T01:21:37;14.80;77.10
75927;DHT22;64605;48.296;16.416;2023-05-07T01:24:03;14.80;77.60
75927;DHT22;64605;48.296;16.416;2023-05-07T01:26:30;14.80;77.90
75927;DHT22;64605;48.296;16.416;2023-05-07T01:28:56;14.70;78.70
75927;DHT22;64605;48.296;16.416;2023-05-07T01:31:22;14.70;78.10
75927;DHT22;64605;48.296;16.416;2023-05-07T01:33:48;14.70;78.00
75927;DHT22;64605;48.296;16.416;2023-05-07T01:36:15;14.60;78.70
75927;DHT22;64605;48.296;16.416;2023-05-07T01:38:43;14.60;78.10
75927;DHT22;64605;48.296;16.416;2023-05-07T01:41:08;14.60;78.40
75927;DHT22;64605;48.296;16.416;2023-05-07T01:43:34;14.50;78.50
75927;DHT22;64605;48.296;16.416;2023-05-07T01:46:01;14.50;78.00
75927;DHT22;64605;48.296;16.416;2023-05-07T01:48:28;14.60;78.10
75927;DHT22;64605;48.296;16.416;2023-05-07T01:50:55;14.60;77.80
75927;DHT22;64605;48.296;16.416;2023-05-07T01:53:20;14.60;78.50
75927;DHT22;64605;48.296;16.416;2023-05-07T01:55:46;14.60;78.10
75927;DHT22;64605;48.296;16.416;2023-05-07T01:58:12;14.60;78.10
75927;DHT22;64605;48.296;16.416;2023-05-07T02:00:37;14.70;78.20
75927;DHT22;64605;48.296;16.416;2023-05-07T02:03:03;14.70;78.30
75927;DHT22;64605;48.296;16.416;2023-05-07T02:05:29;14.70;77.90
75927;DHT22;64605;48.296;16.416;2023-05-07T02:07:54;14.70;78.20
75927;DHT22;64605;48.296;16.416;2023-05-07T02:10:20;14.80;77.80
75927;DHT22;64605;48.296;16.416;2023-05-07T02:12:45;14.80;77.90
75927;DHT22;64605;48.296;16.416;2023-05-07T02:15:11;14.70;77.70
75927;DHT22;64605;48.296;16.416;2023-05-07T02:17:40;14.70;77.90
75927;DHT22;64605;48.296;16.416;2023-05-07T02:20:24;14.70;77.50
75927;DHT22;64605;48.296;16.416;2023-05-07T02:22:49;14.70;77.30
75927;DHT22;64605;48.296;16.416;2023-05-07T02:25:15;14.70;77.90
75927;DHT22;64605;48.296;16.416;2023-05-07T02:27:41;14.70;77.70
75927;DHT22;64605;48.296;16.416;2023-05-07T02:30:07;14.60;77.40
75927;DHT22;64605;48.296;16.416;2023-05-07T02:32:32;14.60;77.60
75927;DHT22;64605;48.296;16.416;2023-05-07T02:34:58;14.60;77.10
75927;DHT22;64605;48.296;16.416;2023-05-07T02:37:24;14.60;77.40
75927;DHT22;64605;48.296;16.416;2023-05-07T02:39:49;14.60;77.80
75927;DHT22;64605;48.296;16.416;2023-05-07T02:42:15;14.60;77.50
75927;DHT22;64605;48.296;16.416;2023-05-07T02:44:40;14.60;77.60
75927;DHT22;64605;48.296;16.416;2023-05-07T02:47:06;14.60;77.20
75927;DHT22;64605;48.296;16.416;2023-05-07T02:49:34;14.60;77.50
75927;DHT22;64605;48.296;16.416;2023-05-07T02:51:59;14.60;77.70
75927;DHT22;64605;48.296;16.416;2023-05-07T02:54:25;14.60;77.60
75927;DHT22;64605;48.296;16.416;2023-05-07T02:56:50;14.60;77.30
75927;DHT22;64605;48.296;16.416;2023-05-07T02:59:16;14.60;77.80
75927;DHT22;64605;48.296;16.416;2023-05-07T03:01:42;14.60;77.50
75927;DHT22;64605;48.296;16.416;2023-05-07T03:04:09;14.60;77.60
75927;DHT22;64605;48.296;16.416;2023-05-07T03:06:36;14.60;77.70
75927;DHT22;64605;48.296;16.416;2023-05-07T03:09:02;14.60;77.10
75927;DHT22;64605;48.296;16.416;2023-05-07T03:11:28;14.60;77.40
75927;DHT22;64605;48.296;16.416;2023-05-07T03:13:53;14.60;77.90
75927;DHT22;64605;48.296;16.416;2023-05-07T03:16:19;14.60;77.60
75927;DHT22;64605;48.296;16.416;2023-05-07T03:18:45;14.60;77.20
75927;DHT22;64605;48.296;16.416;2023-05-07T03:21:10;14.50;77.30
75927;DHT22;64605;48.296;16.416;2023-05-07T03:23:36;14.50;77.10
75927;DHT22;64605;48.296;16.416;2023-05-07T03:26:02;14.50;77.20
75927;DHT22;64605;48.296;16.416;2023-05-07T03:28:27;14.40;77.00
75927;DHT22;64605;48.296;16.416;2023-05-07T03:30:53;14.40;77.20
75927;DHT22;64605;48.296;16.416;2023-05-07T03:33:19;14.30;77.80
75927;DHT22;64605;48.296;16.416;2023-05-07T03:35:44;14.30;77.80
75927;DHT22;64605;48.296;16.416;2023-05-07T03:38:10;14.30;77.70
75927;DHT22;64605;48.296;16.416;2023-05-07T03:40:36;14.30;77.20
75927;DHT22;64605;48.296;16.416;2023-05-07T03:43:02;14.30;77.60
75927;DHT22;64605;48.296;16.416;2023-05-07T03:45:27;14.30;77.40
75927;DHT22;64605;48.296;16.416;2023-05-07T03:47:53;14.30;77.50
75927;DHT22;64605;48.296;16.416;2023-05-07T03:50:19;14.30;77.20
75927;DHT22;64605;48.296;16.416;2023-05-07T03:52:45;14.30;77.40
75927;DHT22;64605;48.296;16.416;2023-05-07T03:55:11;14.30;77.70
75927;DHT22;64605;48.296;16.416;2023-05-07T03:57:36;14.30;77.30
75927;DHT22;64605;48.296;16.416;2023-05-07T04:00:02;14.30;77.40
75927;DHT22;64605;48.296;16.416;2023-05-07T04:02:29;14.40;77.20
75927;DHT22;64605;48.296;16.416;2023-05-07T04:04:55;14.40;77.40
75927;DHT22;64605;48.296;16.416;2023-05-07T04:07:21;14.50;77.70
75927;DHT22;64605;48.296;16.416;2023-05-07T04:09:47;14.50;77.50
75927;DHT22;64605;48.296;16.416;2023-05-07T04:12:13;14.60;77.00
75927;DHT22;64605;48.296;16.416;2023-05-07T04:14:38;14.70;77.00
75927;DHT22;64605;48.296;16.416;2023-05-07T04:17:04;14.70;77.20
75927;DHT22;64605;48.296;16.416;2023-05-07T04:19:33;14.80;76.80
75927;DHT22;64605;48.296;16.416;2023-05-07T04:21:58;14.90;77.00
75927;DHT22;64605;48.296;16.416;2023-05-07T04:24:24;15.00;77.10
75927;DHT22;64605;48.296;16.416;2023-05-07T04:26:50;15.00;76.90
75927;DHT22;64605;48.296;16.416;2023-05-07T04:29:16;15.10;77.00
75927;DHT22;64605;48.296;16.416;2023-05-07T04:31:42;15.30;76.80
75927;DHT22;64605;48.296;16.416;2023-05-07T04:34:10;15.40;76.30
75927;DHT22;64605;48.296;16.416;2023-05-07T04:36:37;15.50;76.20
75927;DHT22;64605;48.296;16.416;2023-05-07T04:39:03;15.70;75.90
75927;DHT22;64605;48.296;16.416;2023-05-07T04:41:29;15.80;75.80
75927;DHT22;64605;48.296;16.416;2023-05-07T04:43:55;15.90;75.10
75927;DHT22;64605;48.296;16.416;2023-05-07T04:46:22;16.00;75.40
75927;DHT22;64605;48.296;16.416;2023-05-07T04:48:49;16.10;74.30
75927;DHT22;64605;48.296;16.416;2023-05-07T04:51:15;16.30;74.00
75927;DHT22;64605;48.296;16.416;2023-05-07T04:53:40;16.40;74.00
75927;DHT22;64605;48.296;16.416;2023-05-07T04:56:06;16.50;73.00
75927;DHT22;64605;48.296;16.416;2023-05-07T04:58:32;16.40;72.60
75927;DHT22;64605;48.296;16.416;2023-05-07T05:00:58;16.50;72.80
75927;DHT22;64605;48.296;16.416;2023-05-07T05:03:25;16.60;72.80
75927;DHT22;64605;48.296;16.416;2023-05-07T05:05:52;16.70;72.60
75927;DHT22;64605;48.296;16.416;2023-05-07T05:08:18;16.90;72.10
75927;DHT22;64605;48.296;16.416;2023-05-07T05:10:44;17.00;71.30
75927;DHT22;64605;48.296;16.416;2023-05-07T05:13:10;17.10;71.20
75927;DHT22;64605;48.296;16.416;2023-05-07T05:15:38;17.30;71.10
75927;DHT22;64605;48.296;16.416;2023-05-07T05:18:04;17.40;70.40
75927;DHT22;64605;48.296;16.416;2023-05-07T05:20:29;17.50;70.40
75927;DHT22;64605;48.296;16.416;2023-05-07T05:22:55;17.60;70.20
75927;DHT22;64605;48.296;16.416;2023-05-07T05:25:21;17.80;69.40
75927;DHT22;64605;48.296;16.416;2023-05-07T05:27:46;17.80;68.50
75927;DHT22;64605;48.296;16.416;2023-05-07T05:30:12;18.00;68.60
75927;DHT22;64605;48.296;16.416;2023-05-07T05:32:38;18.10;68.20
75927;DHT22;64605;48.296;16.416;2023-05-07T05:35:04;18.40;67.70
75927;DHT22;64605;48.296;16.416;2023-05-07T05:37:30;18.60;67.10
75927;DHT22;64605;48.296;16.416;2023-05-07T05:39:56;18.80;65.90
75927;DHT22;64605;48.296;16.416;2023-05-07T05:42:23;19.00;66.10
75927;DHT22;64605;48.296;16.416;2023-05-07T05:44:49;19.10;64.70
75927;DHT22;64605;48.296;16.416;2023-05-07T05:47:15;19.20;64.60
75927;DHT22;64605;48.296;16.416;2023-05-07T05:49:40;19.30;63.10
75927;DHT22;64605;48.296;16.416;2023-05-07T05:52:08;19.80;63.60
75927;DHT22;64605;48.296;16.416;2023-05-07T05:54:34;20.20;61.20
75927;DHT22;64605;48.296;16.416;2023-05-07T05:57:00;20.60;59.70
75927;DHT22;64605;48.296;16.416;2023-05-07T05:59:25;21.00;60.60
75927;DHT22;64605;48.296;16.416;2023-05-07T06:01:51;21.40;56.50
75927;DHT22;64605;48.296;16.416;2023-05-07T06:04:17;21.40;57.20
75927;DHT22;64605;48.296;16.416;2023-05-07T06:06:42;21.30;57.10
75927;DHT22;64605;48.296;16.416;2023-05-07T06:09:08;21.50;56.60
75927;DHT22;64605;48.296;16.416;2023-05-07T06:11:34;21.30;55.70
75927;DHT22;64605;48.296;16.416;2023-05-07T06:13:59;21.30;55.40
75927;DHT22;64605;48.296;16.416;2023-05-07T06:16:25;21.40;53.70
75927;DHT22;64605;48.296;16.416;2023-05-07T06:18:50;21.20;53.40
75927;DHT22;64605;48.296;16.416;2023-05-07T06:21:16;21.40;55.30
75927;DHT22;64605;48.296;16.416;2023-05-07T06:23:42;21.70;54.70
75927;DHT22;64605;48.296;16.416;2023-05-07T06:26:07;22.30;54.40
75927;DHT22;64605;48.296;16.416;2023-05-07T06:28:33;22.40;54.00
75927;DHT22;64605;48.296;16.416;2023-05-07T06:31:15;22.70;52.50
75927;DHT22;64605;48.296;16.416;2023-05-07T06:33:42;22.90;51.60
75927;DHT22;64605;48.296;16.416;2023-05-07T06:36:08;23.00;50.70
75927;DHT22;64605;48.296;16.416;2023-05-07T06:38:34;23.10;50.00
75927;DHT22;64605;48.296;16.416;2023-05-07T06:40:59;23.70;50.80
75927;DHT22;64605;48.296;16.416;2023-05-07T06:43:25;24.60;48.80
75927;DHT22;64605;48.296;16.416;2023-05-07T06:45:51;24.80;45.20
75927;DHT22;64605;48.296;16.416;2023-05-07T06:48:16;24.30;46.10
75927;DHT22;64605;48.296;16.416;2023-05-07T06:50:42;23.80;46.90
75927;DHT22;64605;48.296;16.416;2023-05-07T06:53:07;23.50;47.30
75927;DHT22;64605;48.296;16.416;2023-05-07T06:55:33;23.40;47.60
75927;DHT22;64605;48.296;16.416;2023-05-07T06:57:59;23.50;48.20
75927;DHT22;64605;48.296;16.416;2023-05-07T07:00:27;23.50;48.00
75927;DHT22;64605;48.296;16.416;2023-05-07T07:02:54;23.50;47.80
75927;DHT22;64605;48.296;16.416;2023-05-07T07:05:20;23.10;47.70
75927;DHT22;64605;48.296;16.416;2023-05-07T07:07:45;22.90;48.10
75927;DHT22;64605;48.296;16.416;2023-05-07T07:10:18;22.50;48.90
75927;DHT22;64605;48.296;16.416;2023-05-07T07:12:44;22.20;49.70
75927;DHT22;64605;48.296;16.416;2023-05-07T07:15:10;22.60;48.50
75927;DHT22;64605;48.296;16.416;2023-05-07T07:17:36;23.40;47.40
75927;DHT22;64605;48.296;16.416;2023-05-07T07:20:02;23.60;45.90
75927;DHT22;64605;48.296;16.416;2023-05-07T07:22:28;23.30;46.20
75927;DHT22;64605;48.296;16.416;2023-05-07T07:24:54;23.30;46.90
75927;DHT22;64605;48.296;16.416;2023-05-07T07:27:19;23.30;46.90
75927;DHT22;64605;48.296;16.416;2023-05-07T07:29:45;23.20;46.70
75927;DHT22;64605;48.296;16.416;2023-05-07T07:32:11;23.00;47.60
75927;DHT22;64605;48.296;16.416;2023-05-07T07:34:37;23.40;48.70
75927;DHT22;64605;48.296;16.416;2023-05-07T07:37:02;24.60;45.40
75927;DHT22;64605;48.296;16.416;2023-05-07T07:39:32;25.00;44.90
75927;DHT22;64605;48.296;16.416;2023-05-07T07:41:58;26.80;43.00
75927;DHT22;64605;48.296;16.416;2023-05-07T07:44:23;28.90;40.40
75927;DHT22;64605;48.296;16.416;2023-05-07T07:46:49;30.70;34.80
75927;DHT22;64605;48.296;16.416;2023-05-07T07:49:15;31.80;31.90
75927;DHT22;64605;48.296;16.416;2023-05-07T07:51:41;32.30;31.50
75927;DHT22;64605;48.296;16.416;2023-05-07T07:54:07;33.70;28.70
75927;DHT22;64605;48.296;16.416;2023-05-07T07:56:33;34.90;28.90
75927;DHT22;64605;48.296;16.416;2023-05-07T07:58:59;35.70;26.10
75927;DHT22;64605;48.296;16.416;2023-05-07T08:01:25;36.60;25.50
75927;DHT22;64605;48.296;16.416;2023-05-07T08:03:51;37.40;23.60
75927;DHT22;64605;48.296;16.416;2023-05-07T08:06:17;38.60;24.50
75927;DHT22;64605;48.296;16.416;2023-05-07T08:08:42;40.40;22.80
75927;DHT22;64605;48.296;16.416;2023-05-07T08:11:08;40.10;20.90
75927;DHT22;64605;48.296;16.416;2023-05-07T08:13:34;38.30;21.20
75927;DHT22;64605;48.296;16.416;2023-05-07T08:16:00;36.30;23.70
75927;DHT22;64605;48.296;16.416;2023-05-07T08:18:26;34.70;23.90
75927;DHT22;64605;48.296;16.416;2023-05-07T08:20:53;33.30;25.50
75927;DHT22;64605;48.296;16.416;2023-05-07T08:23:19;32.10;26.30
75927;DHT22;64605;48.296;16.416;2023-05-07T08:25:45;31.30;27.60
75927;DHT22;64605;48.296;16.416;2023-05-07T08:28:11;30.60;28.40
75927;DHT22;64605;48.296;16.416;2023-05-07T08:30:36;30.10;28.70
75927;DHT22;64605;48.296;16.416;2023-05-07T08:33:02;29.50;29.50
75927;DHT22;64605;48.296;16.416;2023-05-07T08:35:28;28.90;29.80
75927;DHT22;64605;48.296;16.416;2023-05-07T08:37:53;28.50;31.10
75927;DHT22;64605;48.296;16.416;2023-05-07T08:40:21;28.30;31.90
75927;DHT22;64605;48.296;16.416;2023-05-07T08:42:52;28.20;31.80
75927;DHT22;64605;48.296;16.416;2023-05-07T08:45:19;27.80;32.10
75927;DHT22;64605;48.296;16.416;2023-05-07T08:47:48;27.50;32.70
75927;DHT22;64605;48.296;16.416;2023-05-07T08:50:16;27.40;33.30
75927;DHT22;64605;48.296;16.416;2023-05-07T08:52:42;27.20;33.90
75927;DHT22;64605;48.296;16.416;2023-05-07T08:55:09;27.20;34.30
75927;DHT22;64605;48.296;16.416;2023-05-07T08:57:35;27.80;33.00
75927;DHT22;64605;48.296;16.416;2023-05-07T09:00:02;28.60;33.50
75927;DHT22;64605;48.296;16.416;2023-05-07T09:02:28;29.10;31.70
75927;DHT22;64605;48.296;16.416;2023-05-07T09:04:54;29.90;32.50
75927;DHT22;64605;48.296;16.416;2023-05-07T09:07:20;32.10;30.30
75927;DHT22;64605;48.296;16.416;2023-05-07T09:09:46;32.00;27.60
75927;DHT22;64605;48.296;16.416;2023-05-07T09:12:12;31.50;28.50
75927;DHT22;64605;48.296;16.416;2023-05-07T09:14:38;31.60;27.60
75927;DHT22;64605;48.296;16.416;2023-05-07T09:17:04;31.90;27.80
75927;DHT22;64605;48.296;16.416;2023-05-07T09:19:30;32.40;27.80
75927;DHT22;64605;48.296;16.416;2023-05-07T09:22:00;32.30;27.70
75927;DHT22;64605;48.296;16.416;2023-05-07T09:24:26;31.80;26.80
75927;DHT22;64605;48.296;16.416;2023-05-07T09:26:54;32.10;27.40
75927;DHT22;64605;48.296;16.416;2023-05-07T09:29:21;32.80;26.70
75927;DHT22;64605;48.296;16.416;2023-05-07T09:31:46;34.00;27.10
75927;DHT22;64605;48.296;16.416;2023-05-07T09:34:12;34.30;25.40
75927;DHT22;64605;48.296;16.416;2023-05-07T09:36:38;33.50;25.60
75927;DHT22;64605;48.296;16.416;2023-05-07T09:39:03;32.90;26.30
75927;DHT22;64605;48.296;16.416;2023-05-07T09:41:30;32.40;26.90
75927;DHT22;64605;48.296;16.416;2023-05-07T09:43:58;32.10;26.60
75927;DHT22;64605;48.296;16.416;2023-05-07T09:46:34;32.10;27.70
75927;DHT22;64605;48.296;16.416;2023-05-07T09:49:02;32.30;27.30
75927;DHT22;64605;48.296;16.416;2023-05-07T09:51:41;32.30;26.90
75927;DHT22;64605;48.296;16.416;2023-05-07T09:54:09;32.30;26.70
75927;DHT22;64605;48.296;16.416;2023-05-07T09:56:36;32.20;26.00
75927;DHT22;64605;48.296;16.416;2023-05-07T09:59:03;32.00;26.50
75927;DHT22;64605;48.296;16.416;2023-05-07T10:01:31;31.30;27.00
75927;DHT22;64605;48.296;16.416;2023-05-07T10:03:57;30.60;27.90
75927;DHT22;64605;48.296;16.416;2023-05-07T10:06:24;30.20;28.40
75927;DHT22;64605;48.296;16.416;2023-05-07T10:08:52;30.00;28.40
75927;DHT22;64605;48.296;16.416;2023-05-07T10:11:18;30.10;28.80
75927;DHT22;64605;48.296;16.416;2023-05-07T10:13:46;30.30;28.20
75927;DHT22;64605;48.296;16.416;2023-05-07T10:16:13;30.60;28.80
75927;DHT22;64605;48.296;16.416;2023-05-07T10:18:40;31.60;28.70
75927;DHT22;64605;48.296;16.416;2023-05-07T10:21:23;31.70;27.70
75927;DHT22;64605;48.296;16.416;2023-05-07T10:24:00;31.40;27.30
75927;DHT22;64605;48.296;16.416;2023-05-07T10:26:30;31.00;27.50
75927;DHT22;64605;48.296;16.416;2023-05-07T10:29:02;31.00;27.50
75927;DHT22;64605;48.296;16.416;2023-05-07T10:34:01;31.10;27.40
75927;DHT22;64605;48.296;16.416;2023-05-07T10:36:28;31.60;27.20
75927;DHT22;64605;48.296;16.416;2023-05-07T10:38:55;32.00;27.40
75927;DHT22;64605;48.296;16.416;2023-05-07T10:41:20;32.50;26.40
75927;DHT22;64605;48.296;16.416;2023-05-07T10:43:47;32.40;25.60
75927;DHT22;64605;48.296;16.416;2023-05-07T10:46:16;32.40;26.00
75927;DHT22;64605;48.296;16.416;2023-05-07T10:51:32;31.80;26.50
75927;DHT22;64605;48.296;16.416;2023-05-07T10:54:24;32.80;27.10
75927;DHT22;64605;48.296;16.416;2023-05-07T10:56:50;33.10;25.70
75927;DHT22;64605;48.296;16.416;2023-05-07T11:01:53;33.60;25.30
75927;DHT22;64605;48.296;16.416;2023-05-07T11:04:20;33.50;25.30
75927;DHT22;64605;48.296;16.416;2023-05-07T11:10:04;32.70;24.60
75927;DHT22;64605;48.296;16.416;2023-05-07T11:15:07;32.30;25.20
75927;DHT22;64605;48.296;16.416;2023-05-07T11:17:34;32.10;25.40
75927;DHT22;64605;48.296;16.416;2023-05-07T11:20:01;32.10;25.70
75927;DHT22;64605;48.296;16.416;2023-05-07T11:25:00;31.80;25.70
75927;DHT22;64605;48.296;16.416;2023-05-07T11:27:27;31.50;26.10
75927;DHT22;64605;48.296;16.416;2023-05-07T11:29:53;31.10;27.00
75927;DHT22;64605;48.296;16.416;2023-05-07T11:32:26;30.70;27.60
75927;DHT22;64605;48.296;16.416;2023-05-07T11:34:53;30.60;27.10
75927;DHT22;64605;48.296;16.416;2023-05-07T11:37:20;30.50;27.10
75927;DHT22;64605;48.296;16.416;2023-05-07T11:39:46;30.40;27.80
75927;DHT22;64605;48.296;16.416;2023-05-07T11:42:27;30.60;28.20
75927;DHT22;64605;48.296;16.416;2023-05-07T11:44:53;30.70;28.30
75927;DHT22;64605;48.296;16.416;2023-05-07T11:47:19;30.70;28.00
75927;DHT22;64605;48.296;16.416;2023-05-07T11:49:50;30.60;27.60
75927;DHT22;64605;48.296;16.416;2023-05-07T11:52:17;30.10;27.60
75927;DHT22;64605;48.296;16.416;2023-05-07T11:54:57;30.00;28.20
75927;DHT22;64605;48.296;16.416;2023-05-07T11:57:24;29.90;28.60
75927;DHT22;64605;48.296;16.416;2023-05-07T11:59:54;29.70;29.30
75927;DHT22;64605;48.296;16.416;2023-05-07T12:02:19;29.60;29.00
75927;DHT22;64605;48.296;16.416;2023-05-07T12:04:45;29.80;28.50
75927;DHT22;64605;48.296;16.416;2023-05-07T12:07:15;29.90;28.40
75927;DHT22;64605;48.296;16.416;2023-05-07T12:09:41;29.90;28.70
75927;DHT22;64605;48.296;16.416;2023-05-07T12:12:07;29.70;28.70
75927;DHT22;64605;48.296;16.416;2023-05-07T12:14:37;29.40;28.00
75927;DHT22;64605;48.296;16.416;2023-05-07T12:17:03;29.10;28.20
75927;DHT22;64605;48.296;16.416;2023-05-07T12:19:30;28.80;28.30
75927;DHT22;64605;48.296;16.416;2023-05-07T12:21:56;28.50;29.30
75927;DHT22;64605;48.296;16.416;2023-05-07T12:24:22;28.10;29.40
75927;DHT22;64605;48.296;16.416;2023-05-07T12:26:48;27.80;29.40
75927;DHT22;64605;48.296;16.416;2023-05-07T12:29:14;27.80;29.90
75927;DHT22;64605;48.296;16.416;2023-05-07T12:31:41;27.70;29.80
75927;DHT22;64605;48.296;16.416;2023-05-07T12:34:07;27.50;29.90
75927;DHT22;64605;48.296;16.416;2023-05-07T12:36:40;27.40;30.20
75927;DHT22;64605;48.296;16.416;2023-05-07T12:39:06;27.40;31.10
75927;DHT22;64605;48.296;16.416;2023-05-07T12:41:36;27.60;31.20
75927;DHT22;64605;48.296;16.416;2023-05-07T12:44:17;27.60;30.60
75927;DHT22;64605;48.296;16.416;2023-05-07T12:46:42;27.70;30.40
75927;DHT22;64605;48.296;16.416;2023-05-07T12:49:08;27.70;30.00
75927;DHT22;64605;48.296;16.416;2023-05-07T12:51:35;27.70;29.90
75927;DHT22;64605;48.296;16.416;2023-05-07T12:54:00;27.70;30.30
75927;DHT22;64605;48.296;16.416;2023-05-07T12:56:26;27.60;30.10
75927;DHT22;64605;48.296;16.416;2023-05-07T12:58:57;27.50;30.10
75927;DHT22;64605;48.296;16.416;2023-05-07T13:01:29;27.50;30.60
75927;DHT22;64605;48.296;16.416;2023-05-07T13:03:55;27.50;30.00
75927;DHT22;64605;48.296;16.416;2023-05-07T13:06:21;27.30;29.90
75927;DHT22;64605;48.296;16.416;2023-05-07T13:08:47;27.10;30.00
75927;DHT22;64605;48.296;16.416;2023-05-07T13:11:12;26.80;30.20
75927;DHT22;64605;48.296;16.416;2023-05-07T13:13:39;26.80;31.00
75927;DHT22;64605;48.296;16.416;2023-05-07T13:16:07;26.80;31.20
75927;DHT22;64605;48.296;16.416;2023-05-07T13:18:34;26.70;31.70
75927;DHT22;64605;48.296;16.416;2023-05-07T13:21:00;26.70;31.90
75927;DHT22;64605;48.296;16.416;2023-05-07T13:23:27;26.70;31.60
75927;DHT22;64605;48.296;16.416;2023-05-07T13:25:53;26.60;31.60
75927;DHT22;64605;48.296;16.416;2023-05-07T13:28:20;26.60;32.10
75927;DHT22;64605;48.296;16.416;2023-05-07T13:30:46;26.60;31.30
75927;DHT22;64605;48.296;16.416;2023-05-07T13:33:12;26.40;31.30
75927;DHT22;64605;48.296;16.416;2023-05-07T13:35:37;26.20;32.30
75927;DHT22;64605;48.296;16.416;2023-05-07T13:38:04;26.10;32.20
75927;DHT22;64605;48.296;16.416;2023-05-07T13:40:30;25.90;32.20
75927;DHT22;64605;48.296;16.416;2023-05-07T13:42:57;25.70;32.30
75927;DHT22;64605;48.296;16.416;2023-05-07T13:45:24;25.70;32.40
75927;DHT22;64605;48.296;16.416;2023-05-07T13:47:51;25.60;32.70
75927;DHT22;64605;48.296;16.416;2023-05-07T13:50:17;25.70;33.30
75927;DHT22;64605;48.296;16.416;2023-05-07T13:52:44;25.90;33.00
75927;DHT22;64605;48.296;16.416;2023-05-07T13:55:19;26.00;33.10
75927;DHT22;64605;48.296;16.416;2023-05-07T13:57:46;26.10;32.50
75927;DHT22;64605;48.296;16.416;2023-05-07T14:00:12;26.10;32.30
75927;DHT22;64605;48.296;16.416;2023-05-07T14:02:38;26.10;32.40
75927;DHT22;64605;48.296;16.416;2023-05-07T14:05:04;26.20;32.00
75927;DHT22;64605;48.296;16.416;2023-05-07T14:07:30;26.30;32.30
75927;DHT22;64605;48.296;16.416;2023-05-07T14:09:56;26.30;32.30
75927;DHT22;64605;48.296;16.416;2023-05-07T14:12:22;26.20;32.10
75927;DHT22;64605;48.296;16.416;2023-05-07T14:14:48;26.00;31.90
75927;DHT22;64605;48.296;16.416;2023-05-07T14:17:18;25.80;32.40
75927;DHT22;64605;48.296;16.416;2023-05-07T14:19:45;25.80;33.30
75927;DHT22;64605;48.296;16.416;2023-05-07T14:22:10;25.60;33.80
75927;DHT22;64605;48.296;16.416;2023-05-07T14:24:36;25.50;33.10
75927;DHT22;64605;48.296;16.416;2023-05-07T14:27:02;25.40;33.10
75927;DHT22;64605;48.296;16.416;2023-05-07T14:29:28;25.30;33.20
75927;DHT22;64605;48.296;16.416;2023-05-07T14:31:53;25.30;33.00
75927;DHT22;64605;48.296;16.416;2023-05-07T14:34:19;25.20;33.10
75927;DHT22;64605;48.296;16.416;2023-05-07T14:36:45;25.00;33.70
75927;DHT22;64605;48.296;16.416;2023-05-07T14:39:11;24.90;34.40
75927;DHT22;64605;48.296;16.416;2023-05-07T14:41:36;24.90;34.00
75927;DHT22;64605;48.296;16.416;2023-05-07T14:44:02;24.80;34.00
75927;DHT22;64605;48.296;16.416;2023-05-07T14:46:29;24.60;34.90
75927;DHT22;64605;48.296;16.416;2023-05-07T14:48:57;24.60;35.60
75927;DHT22;64605;48.296;16.416;2023-05-07T14:51:23;24.50;35.70
75927;DHT22;64605;48.296;16.416;2023-05-07T14:53:50;24.50;35.20
75927;DHT22;64605;48.296;16.416;2023-05-07T14:56:16;24.40;35.50
75927;DHT22;64605;48.296;16.416;2023-05-07T14:58:43;24.20;35.40
75927;DHT22;64605;48.296;16.416;2023-05-07T15:01:09;24.00;35.60
75927;DHT22;64605;48.296;16.416;2023-05-07T15:03:34;24.00;35.80
75927;DHT22;64605;48.296;16.416;2023-05-07T15:06:00;23.80;35.90
75927;DHT22;64605;48.296;16.416;2023-05-07T15:08:26;23.70;36.40
75927;DHT22;64605;48.296;16.416;2023-05-07T15:10:52;23.70;37.20
75927;DHT22;64605;48.296;16.416;2023-05-07T15:13:18;23.80;36.80
75927;DHT22;64605;48.296;16.416;2023-05-07T15:15:44;23.80;35.70
75927;DHT22;64605;48.296;16.416;2023-05-07T15:18:10;23.70;36.10
75927;DHT22;64605;48.296;16.416;2023-05-07T15:20:36;23.60;36.00
75927;DHT22;64605;48.296;16.416;2023-05-07T15:23:02;23.50;36.60
75927;DHT22;64605;48.296;16.416;2023-05-07T15:25:30;23.50;37.30
75927;DHT22;64605;48.296;16.416;2023-05-07T15:27:56;23.50;36.90